Time;durP1;ratioP1;P1;durP2;ratioP2;P2;SDS_P1;SDS_P2;PMS_P1;PMS_P2;Temp;Humidity;BMP_temperature;BMP_pressure;BME280_temperature;BME280_humidity;BME280_pressure;Samples;Min_cycle;Max_cycle;Signal;HPM_P1;HPM_P2
2022/03/16 00:00:57;;;;;;;14.23;8.87;;;4.80;99.90;;;;;;5115216;28;20164;-81
2022/03/16 00:03:23;;;;;;;17.20;11.10;;;4.90;99.90;;;;;;5114987;28;20229;-81
2022/03/16 00:05:48;;;;;;;20.57;11.10;;;4.90;99.90;;;;;;5114239;28;20595;-81
2022/03/16 00:08:14;;;;;;;17.77;11.97;;;4.90;99.90;;;;;;5113445;28;20415;-81
2022/03/16 00:10:39;;;;;;;15.03;10.13;;;4.90;99.90;;;;;;5114143;28;20562;-81
2022/03/16 00:13:05;;;;;;;20.07;12.33;;;4.90;99.90;;;;;;5115267;28;20298;-81
2022/03/16 00:15:30;;;;;;;13.47;10.47;;;4.90;99.90;;;;;;5114977;28;20172;-80
2022/03/16 00:17:56;;;;;;;17.70;11.30;;;4.90;99.90;;;;;;5114725;28;20560;-81
2022/03/16 00:20:21;;;;;;;16.60;9.93;;;4.80;99.90;;;;;;5115178;28;20168;-80
2022/03/16 00:22:47;;;;;;;15.67;11.03;;;4.90;99.90;;;;;;5115136;28;20561;-80
2022/03/16 00:25:12;;;;;;;16.40;8.93;;;4.90;99.90;;;;;;5114991;28;20173;-80
2022/03/16 00:27:38;;;;;;;12.37;7.27;;;5.00;99.90;;;;;;5115128;28;20247;-81
2022/03/16 00:30:04;;;;;;;9.73;5.80;;;5.00;99.90;;;;;;5114713;28;20204;-81
2022/03/16 00:32:30;;;;;;;8.70;6.03;;;5.10;99.90;;;;;;5114372;28;20208;-81
2022/03/16 00:34:55;;;;;;;11.80;8.67;;;5.20;99.90;;;;;;5114989;28;20441;-82
2022/03/16 00:37:21;;;;;;;11.37;8.90;;;5.20;99.90;;;;;;5114929;28;20628;-81
2022/03/16 00:39:46;;;;;;;8.80;7.27;;;5.30;99.90;;;;;;5114842;28;20236;-80
2022/03/16 00:42:12;;;;;;;11.27;8.57;;;5.30;99.90;;;;;;5114668;28;20253;-81
2022/03/16 00:44:37;;;;;;;10.77;7.37;;;5.30;99.90;;;;;;5114741;28;20634;-81
2022/03/16 00:47:04;;;;;;;12.00;8.40;;;5.30;99.90;;;;;;5114522;28;20168;-80
2022/03/16 00:49:29;;;;;;;12.70;7.50;;;5.40;99.90;;;;;;5113601;28;20669;-81
2022/03/16 00:51:55;;;;;;;12.30;7.70;;;5.40;99.90;;;;;;5102655;28;20424;-81
2022/03/16 00:54:20;;;;;;;8.97;7.57;;;5.50;99.90;;;;;;5102856;28;20225;-82
2022/03/16 00:56:46;;;;;;;10.33;7.93;;;5.40;99.90;;;;;;5104077;28;20183;-82
2022/03/16 00:59:11;;;;;;;12.83;8.23;;;5.50;99.90;;;;;;5104091;28;20583;-82
2022/03/16 01:01:37;;;;;;;15.80;10.00;;;5.50;99.90;;;;;;5102816;28;20173;-82
2022/03/16 01:04:03;;;;;;;15.57;11.10;;;5.60;99.90;;;;;;5102536;28;20183;-82
2022/03/16 01:06:28;;;;;;;16.57;9.87;;;5.50;99.90;;;;;;5103898;28;20175;-82
2022/03/16 01:08:54;;;;;;;17.90;9.07;;;5.50;99.90;;;;;;5102063;28;20172;-82
2022/03/16 01:11:19;;;;;;;11.27;9.33;;;5.50;99.90;;;;;;5102651;28;20172;-81
2022/03/16 01:13:46;;;;;;;19.97;11.63;;;5.50;99.90;;;;;;5103367;28;20676;-82
2022/03/16 01:16:14;;;;;;;15.80;10.77;;;5.50;99.90;;;;;;5100970;28;20185;-81
2022/03/16 01:18:40;;;;;;;15.03;10.97;;;5.50;99.90;;;;;;5102551;28;20425;-82
2022/03/16 01:21:07;;;;;;;17.77;11.33;;;5.50;99.90;;;;;;5103409;28;20943;-82
2022/03/16 01:23:35;;;;;;;19.70;11.20;;;5.60;99.90;;;;;;5101602;28;20169;-82
2022/03/16 01:26:03;;;;;;;16.97;9.97;;;5.60;99.90;;;;;;5102225;28;20419;-81
2022/03/16 01:28:29;;;;;;;15.20;9.43;;;5.60;99.90;;;;;;5085284;28;20494;-82
2022/03/16 01:30:54;;;;;;;17.40;10.70;;;5.70;99.90;;;;;;5100510;28;20813;-82
2022/03/16 01:33:22;;;;;;;13.93;10.00;;;5.70;99.90;;;;;;5102283;28;20232;-82
2022/03/16 01:35:47;;;;;;;12.07;9.77;;;5.80;99.90;;;;;;5103603;28;20597;-81
2022/03/16 01:38:13;;;;;;;14.50;9.60;;;5.70;99.90;;;;;;5101443;28;20459;-81
2022/03/16 01:40:38;;;;;;;17.50;9.90;;;5.80;99.90;;;;;;5103706;28;20214;-81
2022/03/16 01:43:04;;;;;;;15.33;10.70;;;5.70;99.90;;;;;;5101718;28;20178;-80
2022/03/16 01:45:29;;;;;;;15.77;9.90;;;5.70;99.90;;;;;;5105568;28;20174;-81
2022/03/16 01:47:55;;;;;;;11.70;8.60;;;5.70;99.90;;;;;;5083247;28;20651;-81
2022/03/16 01:50:20;;;;;;;12.50;9.27;;;5.60;99.90;;;;;;5101925;28;20161;-81
2022/03/16 01:52:46;;;;;;;16.47;10.30;;;5.70;99.90;;;;;;5102852;28;20573;-81
2022/03/16 01:55:11;;;;;;;13.90;9.30;;;5.70;99.90;;;;;;5100932;28;20591;-81
2022/03/16 01:57:40;;;;;;;12.80;8.53;;;5.70;99.90;;;;;;5102266;28;20171;-82
2022/03/16 02:00:08;;;;;;;16.00;10.93;;;5.70;99.90;;;;;;5102637;28;20177;-81
2022/03/16 02:02:33;;;;;;;14.27;9.97;;;5.70;99.90;;;;;;5101082;28;20407;-81
2022/03/16 02:04:59;;;;;;;15.50;9.63;;;5.70;99.90;;;;;;5101933;28;20411;-81
2022/03/16 02:07:31;;;;;;;13.20;8.90;;;5.60;99.90;;;;;;5102425;28;20244;-81
2022/03/16 02:09:59;;;;;;;14.13;9.63;;;5.50;99.90;;;;;;5101323;28;20248;-81
2022/03/16 02:12:25;;;;;;;13.20;10.00;;;5.60;99.90;;;;;;5101050;28;20412;-81
2022/03/16 02:14:50;;;;;;;19.37;9.17;;;5.60;99.90;;;;;;5102571;28;20423;-80
2022/03/16 02:17:16;;;;;;;10.70;8.30;;;5.60;99.90;;;;;;5101906;28;20190;-81
2022/03/16 02:19:41;;;;;;;17.50;10.53;;;5.60;99.90;;;;;;5101974;28;20544;-81
2022/03/16 02:22:13;;;;;;;17.17;10.60;;;5.60;99.90;;;;;;5101482;28;20182;-81
2022/03/16 02:24:39;;;;;;;16.20;10.17;;;5.60;99.90;;;;;;5101577;28;20175;-81
2022/03/16 02:27:04;;;;;;;12.00;8.33;;;5.70;99.90;;;;;;5098472;28;20900;-82
2022/03/16 02:29:34;;;;;;;17.77;10.80;;;5.60;99.90;;;;;;5102325;28;20713;-81
2022/03/16 02:31:59;;;;;;;14.00;10.33;;;5.60;99.90;;;;;;5101808;28;20607;-81
2022/03/16 02:34:25;;;;;;;14.37;8.03;;;5.60;99.90;;;;;;5104647;28;20481;-81
2022/03/16 02:36:50;;;;;;;18.00;10.40;;;5.50;99.90;;;;;;5105758;28;20180;-81
2022/03/16 02:39:16;;;;;;;15.40;10.17;;;5.50;99.90;;;;;;5103379;28;20277;-82
2022/03/16 02:41:47;;;;;;;16.50;9.00;;;5.50;99.90;;;;;;5107902;28;20233;-81
2022/03/16 02:44:12;;;;;;;17.40;10.80;;;5.50;99.90;;;;;;5088813;28;20194;-82
2022/03/16 02:46:38;;;;;;;19.63;11.20;;;5.50;99.90;;;;;;5109632;28;20418;-82
2022/03/16 02:49:03;;;;;;;13.60;8.43;;;5.40;99.90;;;;;;5108469;28;20180;-82
2022/03/16 02:51:29;;;;;;;15.90;10.20;;;5.40;99.90;;;;;;5104059;28;20177;-83
2022/03/16 02:53:54;;;;;;;13.70;9.93;;;5.30;99.90;;;;;;5096772;28;20348;-82
2022/03/16 02:56:20;;;;;;;12.37;8.97;;;5.20;99.90;;;;;;5096699;28;20170;-82
2022/03/16 02:58:46;;;;;;;14.57;8.70;;;5.10;99.90;;;;;;5096449;28;20668;-82
2022/03/16 03:01:11;;;;;;;13.13;8.53;;;5.00;99.90;;;;;;5096088;28;20578;-82
2022/03/16 03:03:37;;;;;;;13.00;10.40;;;5.10;99.90;;;;;;5096282;28;20172;-82
2022/03/16 03:06:02;;;;;;;16.37;9.53;;;5.00;99.90;;;;;;5096375;28;20657;-82
2022/03/16 03:08:28;;;;;;;17.20;10.67;;;4.90;99.90;;;;;;5096329;28;20219;-82
2022/03/16 03:10:53;;;;;;;12.80;8.70;;;4.80;99.90;;;;;;5096138;28;20171;-82
2022/03/16 03:13:19;;;;;;;13.37;8.43;;;4.80;99.90;;;;;;5096086;28;20564;-82
2022/03/16 03:15:44;;;;;;;14.77;9.70;;;4.70;99.90;;;;;;5095841;28;20641;-82
2022/03/16 03:18:13;;;;;;;13.47;7.93;;;4.70;99.90;;;;;;5096003;28;20169;-82
2022/03/16 03:20:38;;;;;;;13.53;9.07;;;4.70;99.90;;;;;;5096116;28;20629;-82
2022/03/16 03:23:04;;;;;;;14.63;8.13;;;4.60;99.90;;;;;;5095961;28;20411;-82
2022/03/16 03:25:29;;;;;;;12.97;7.80;;;4.50;99.90;;;;;;5096002;28;20175;-82
2022/03/16 03:27:55;;;;;;;12.20;8.27;;;4.40;99.90;;;;;;5096008;28;20164;-82
2022/03/16 03:30:23;;;;;;;14.97;7.93;;;4.30;99.90;;;;;;5095541;28;20169;-81
2022/03/16 03:32:49;;;;;;;13.97;9.50;;;4.20;99.90;;;;;;5095875;28;20564;-81
2022/03/16 03:35:15;;;;;;;13.93;8.77;;;4.20;99.90;;;;;;5095948;28;20411;-81
2022/03/16 03:37:41;;;;;;;13.87;7.50;;;4.10;99.90;;;;;;5095750;28;20414;-81
2022/03/16 03:40:07;;;;;;;10.67;6.20;;;4.10;99.90;;;;;;5101470;28;20163;-81
2022/03/16 03:42:32;;;;;;;12.67;7.43;;;4.20;99.90;;;;;;5116192;28;20178;-80
2022/03/16 03:44:58;;;;;;;14.63;8.30;;;4.10;99.90;;;;;;5115538;28;20832;-81
2022/03/16 03:47:24;;;;;;;13.70;7.77;;;4.00;99.90;;;;;;5116003;28;20417;-81
2022/03/16 03:49:49;;;;;;;13.93;8.40;;;4.00;99.90;;;;;;5097485;28;20168;-81
2022/03/16 03:52:15;;;;;;;18.40;9.30;;;3.90;99.90;;;;;;5115596;28;20547;-81
2022/03/16 03:54:40;;;;;;;17.47;9.50;;;3.90;99.90;;;;;;5115112;28;20563;-81
2022/03/16 03:57:06;;;;;;;14.87;8.63;;;4.00;99.90;;;;;;5115800;28;20268;-81
2022/03/16 03:59:32;;;;;;;18.97;8.37;;;3.90;99.90;;;;;;5115332;28;20182;-80
2022/03/16 04:01:58;;;;;;;24.10;11.10;;;3.80;99.90;;;;;;5115632;28;20169;-81
2022/03/16 04:04:23;;;;;;;17.27;9.87;;;3.80;99.90;;;;;;5115750;28;20164;-81
2022/03/16 04:06:49;;;;;;;17.40;9.10;;;3.80;99.90;;;;;;5115629;28;20198;-81
2022/03/16 04:09:14;;;;;;;15.10;9.70;;;3.70;99.90;;;;;;5115598;28;20168;-81
2022/03/16 04:11:40;;;;;;;13.67;7.90;;;3.60;99.90;;;;;;5097209;28;20186;-80
2022/03/16 04:14:06;;;;;;;16.93;8.90;;;3.60;99.90;;;;;;5115320;28;20217;-81
2022/03/16 04:16:32;;;;;;;14.40;8.97;;;3.60;99.90;;;;;;5114981;28;20421;-80
2022/03/16 04:18:57;;;;;;;14.33;9.03;;;3.50;99.90;;;;;;5115267;28;20171;-80
2022/03/16 04:21:23;;;;;;;16.30;9.60;;;3.40;99.90;;;;;;5115318;28;20171;-82
2022/03/16 04:23:51;;;;;;;16.77;10.40;;;3.40;99.90;;;;;;5097002;28;20584;-80
2022/03/16 04:26:17;;;;;;;17.47;8.27;;;3.40;99.90;;;;;;5115170;28;20168;-80
2022/03/16 04:28:42;;;;;;;15.00;8.60;;;3.30;99.90;;;;;;5115078;28;20963;-80
2022/03/16 04:31:08;;;;;;;12.73;8.53;;;3.30;99.90;;;;;;5114644;28;20615;-80
2022/03/16 04:33:34;;;;;;;13.33;8.73;;;3.30;99.90;;;;;;5115014;28;20210;-80
2022/03/16 04:35:59;;;;;;;14.13;9.60;;;3.40;99.90;;;;;;5114932;28;20168;-80
2022/03/16 04:38:25;;;;;;;11.77;7.27;;;3.40;99.90;;;;;;5115020;28;20654;-80
2022/03/16 04:40:50;;;;;;;15.50;8.63;;;3.30;99.90;;;;;;5114647;28;20215;-80
2022/03/16 04:43:16;;;;;;;20.90;10.00;;;3.20;99.90;;;;;;5114779;28;20567;-80
2022/03/16 04:45:43;;;;;;;16.70;7.93;;;3.20;99.90;;;;;;5114412;28;20252;-80
2022/03/16 04:48:11;;;;;;;10.60;7.53;;;3.20;99.90;;;;;;5114602;28;20640;-80
2022/03/16 04:50:38;;;;;;;11.90;6.70;;;3.10;99.90;;;;;;5114709;28;20413;-80
2022/03/16 04:53:03;;;;;;;12.80;7.33;;;2.90;99.90;;;;;;5114511;28;20497;-80
2022/03/16 04:55:29;;;;;;;9.47;5.57;;;3.00;99.90;;;;;;5114563;28;20453;-80
2022/03/16 04:57:55;;;;;;;8.03;5.70;;;2.90;99.90;;;;;;5114584;28;20615;-81
2022/03/16 05:00:21;;;;;;;9.70;6.20;;;2.80;99.90;;;;;;5114196;28;20424;-81
2022/03/16 05:02:47;;;;;;;16.10;7.70;;;2.90;99.90;;;;;;5114484;28;20393;-81
2022/03/16 05:05:12;;;;;;;15.40;7.33;;;3.10;99.90;;;;;;5114334;28;20416;-80
2022/03/16 05:07:39;;;;;;;15.83;6.80;;;3.00;99.90;;;;;;5114308;28;20514;-81
2022/03/16 05:10:06;;;;;;;11.43;7.23;;;3.00;99.90;;;;;;5114262;28;20172;-82
2022/03/16 05:12:42;;;;;;;19.70;10.77;;;2.80;99.90;;;;;;5114174;28;20403;-82
2022/03/16 05:15:14;;;;;;;19.77;11.00;;;3.10;99.90;;;;;;5113809;28;20913;-81
2022/03/16 05:17:40;;;;;;;19.90;10.43;;;3.40;99.90;;;;;;5113804;28;20397;-81
2022/03/16 05:20:07;;;;;;;18.83;11.37;;;3.40;99.90;;;;;;5114023;28;20420;-80
2022/03/16 05:22:44;;;;;;;15.37;8.93;;;3.30;99.90;;;;;;5113892;28;20263;-82
2022/03/16 05:25:10;;;;;;;23.03;11.07;;;3.20;99.90;;;;;;5113927;28;20434;-80
2022/03/16 05:27:39;;;;;;;18.17;10.80;;;3.10;99.90;;;;;;5114011;28;20747;-80
2022/03/16 05:30:08;;;;;;;18.67;12.50;;;3.20;99.90;;;;;;5113587;28;20917;-80
2022/03/16 05:32:35;;;;;;;22.03;13.10;;;3.30;99.90;;;;;;5113751;28;20409;-80
2022/03/16 05:35:01;;;;;;;28.57;14.40;;;3.40;99.90;;;;;;5113716;28;20508;-81
2022/03/16 05:37:26;;;;;;;27.27;12.80;;;3.40;99.90;;;;;;5113810;28;20776;-81
2022/03/16 05:39:55;;;;;;;20.37;11.93;;;3.40;99.90;;;;;;5113828;28;20413;-82
2022/03/16 05:42:20;;;;;;;26.70;12.93;;;3.30;99.90;;;;;;5114033;28;20636;-81
2022/03/16 05:44:46;;;;;;;20.93;13.87;;;3.20;99.90;;;;;;5113325;28;20420;-82
2022/03/16 05:47:12;;;;;;;23.57;10.37;;;3.10;99.90;;;;;;5095428;28;20191;-82
2022/03/16 05:49:38;;;;;;;26.97;12.67;;;3.10;99.90;;;;;;5113558;28;20175;-82
2022/03/16 05:52:04;;;;;;;18.53;12.13;;;3.10;99.90;;;;;;5113565;28;20171;-82
2022/03/16 05:54:30;;;;;;;23.27;12.13;;;3.10;99.90;;;;;;5113440;28;20472;-82
2022/03/16 05:56:55;;;;;;;18.23;11.80;;;3.30;99.90;;;;;;5113311;28;20409;-82
2022/03/16 05:59:21;;;;;;;20.23;11.30;;;3.30;99.90;;;;;;5094975;28;20574;-81
2022/03/16 06:01:46;;;;;;;25.07;12.33;;;3.40;99.90;;;;;;5113740;28;20171;-81
2022/03/16 06:04:14;;;;;;;26.73;13.50;;;3.50;99.90;;;;;;5097972;28;20235;-81
2022/03/16 06:06:40;;;;;;;21.20;12.57;;;3.60;99.90;;;;;;5094724;28;20163;-81
2022/03/16 06:09:05;;;;;;;23.03;13.53;;;3.60;99.90;;;;;;5113482;28;20934;-81
2022/03/16 06:11:36;;;;;;;24.87;12.20;;;3.60;99.90;;;;;;5095036;28;20604;-81
2022/03/16 06:14:02;;;;;;;24.70;12.57;;;3.50;99.90;;;;;;5112710;28;20207;-81
2022/03/16 06:16:27;;;;;;;23.47;12.50;;;3.60;99.90;;;;;;5112804;28;20507;-80
2022/03/16 06:18:56;;;;;;;17.57;10.43;;;3.70;99.90;;;;;;5113261;28;20175;-80
2022/03/16 06:21:21;;;;;;;22.07;11.57;;;3.70;99.90;;;;;;5112583;28;20186;-81
2022/03/16 06:23:46;;;;;;;15.80;11.50;;;3.90;99.90;;;;;;5106734;28;20513;-81
2022/03/16 06:26:12;;;;;;;23.77;12.43;;;3.80;99.90;;;;;;5103653;28;20176;-81
2022/03/16 06:28:38;;;;;;;19.60;11.53;;;3.90;99.90;;;;;;5101982;28;20164;-81
2022/03/16 06:31:03;;;;;;;19.87;9.80;;;4.00;99.90;;;;;;5101897;28;20254;-81
2022/03/16 06:33:29;;;;;;;23.80;11.97;;;4.20;99.90;;;;;;5103428;28;20203;-81
2022/03/16 06:35:55;;;;;;;24.33;11.50;;;4.40;99.90;;;;;;5101509;28;20168;-81
2022/03/16 06:38:20;;;;;;;21.67;12.30;;;4.70;99.90;;;;;;5102308;28;20489;-81
2022/03/16 06:40:46;;;;;;;19.20;9.90;;;4.90;99.90;;;;;;5102937;28;20216;-81
2022/03/16 06:43:11;;;;;;;17.60;11.27;;;5.20;99.90;;;;;;5112203;28;20172;-82
2022/03/16 06:45:37;;;;;;;19.13;13.23;;;5.80;99.90;;;;;;5108954;28;20208;-82
2022/03/16 06:48:06;;;;;;;18.67;11.43;;;7.70;99.90;;;;;;5107467;28;20182;-82
2022/03/16 06:50:31;;;;;;;16.73;10.70;;;9.90;1.00;;;;;;5106831;28;20188;-82
2022/03/16 06:52:58;;;;;;;17.53;11.33;;;11.60;1.00;;;;;;5101304;28;20632;-83
2022/03/16 06:55:26;;;;;;;15.57;10.33;;;11.90;9.80;;;;;;5100789;28;20597;-81
2022/03/16 06:57:52;;;;;;;17.07;10.07;;;11.90;99.90;;;;;;5103578;28;20908;-82
2022/03/16 07:00:17;;;;;;;16.47;9.63;;;11.90;99.90;;;;;;5105566;28;20424;-82
2022/03/16 07:02:58;;;;;;;14.90;9.70;;;13.10;1.00;;;;;;5102155;28;20203;-82
2022/03/16 07:05:30;;;;;;;16.80;9.50;;;13.90;1.00;;;;;;5102228;28;20293;-82
2022/03/16 07:08:04;;;;;;;14.27;11.23;;;13.20;99.90;;;;;;5100944;28;20946;-82
2022/03/16 07:10:30;;;;;;;16.23;10.70;;;10.60;1.00;;;;;;5101252;28;20479;-82
2022/03/16 07:12:56;;;;;;;14.97;8.67;;;8.90;1.00;;;;;;5103028;28;20883;-82
2022/03/16 07:15:23;;;;;;;15.83;10.70;;;8.20;32.00;;;;;;5101463;28;20447;-82
2022/03/16 07:17:49;;;;;;;14.63;9.93;;;8.00;94.10;;;;;;5101305;28;20183;-81
2022/03/16 07:20:14;;;;;;;22.30;10.67;;;7.80;99.90;;;;;;5103054;28;20409;-82
2022/03/16 07:22:41;;;;;;;17.40;9.73;;;7.70;99.90;;;;;;5101709;28;20174;-80
2022/03/16 07:25:09;;;;;;;17.07;10.40;;;7.60;99.90;;;;;;5083389;28;20205;-82
2022/03/16 07:27:36;;;;;;;20.40;10.47;;;7.40;99.90;;;;;;5102918;28;20436;-82
2022/03/16 07:30:02;;;;;;;19.77;10.10;;;7.40;99.90;;;;;;5104833;28;20402;-81
2022/03/16 07:32:28;;;;;;;20.53;10.07;;;7.50;99.90;;;;;;5101992;28;20419;-81
2022/03/16 07:34:53;;;;;;;19.77;11.40;;;7.50;99.90;;;;;;5097565;28;20427;-81
2022/03/16 07:37:19;;;;;;;16.00;10.40;;;7.40;99.90;;;;;;5103137;28;20242;-81
2022/03/16 07:39:45;;;;;;;19.30;10.00;;;7.40;99.90;;;;;;5108439;28;20261;-82
2022/03/16 07:42:11;;;;;;;14.87;9.10;;;7.40;99.90;;;;;;5115669;28;20212;-81
2022/03/16 07:44:39;;;;;;;20.33;10.03;;;7.40;99.90;;;;;;5115487;28;21046;-81
2022/03/16 07:47:05;;;;;;;19.40;10.63;;;7.40;99.90;;;;;;5115769;28;20568;-82
2022/03/16 07:49:31;;;;;;;16.10;8.83;;;7.50;99.90;;;;;;5115904;28;20491;-81
2022/03/16 07:51:56;;;;;;;23.37;11.93;;;7.50;99.90;;;;;;5115862;28;20182;-82
2022/03/16 07:54:22;;;;;;;19.07;9.40;;;7.60;99.90;;;;;;5115747;28;20692;-83
2022/03/16 07:56:47;;;;;;;20.00;10.40;;;7.50;99.90;;;;;;5115748;28;20209;-81
2022/03/16 07:59:14;;;;;;;13.77;8.27;;;7.60;99.90;;;;;;5097241;28;20173;-83
2022/03/16 08:01:41;;;;;;;20.97;9.00;;;7.50;99.90;;;;;;5115710;28;20195;-82
2022/03/16 08:04:07;;;;;;;16.40;9.70;;;7.60;99.90;;;;;;5097417;28;20932;-82
2022/03/16 08:06:33;;;;;;;21.13;9.67;;;7.80;99.90;;;;;;5115602;28;20419;-82
2022/03/16 08:08:59;;;;;;;21.43;11.17;;;7.80;99.90;;;;;;5115408;28;20405;-82
2022/03/16 08:11:25;;;;;;;18.43;10.47;;;7.90;99.90;;;;;;5115424;28;20500;-82
2022/03/16 08:13:51;;;;;;;16.33;9.10;;;7.90;99.90;;;;;;5115137;28;20557;-82
2022/03/16 08:16:16;;;;;;;17.67;9.23;;;8.10;99.90;;;;;;5115586;28;20173;-84
2022/03/16 08:18:42;;;;;;;15.77;8.60;;;8.30;99.90;;;;;;5115404;28;20172;-83
2022/03/16 08:21:07;;;;;;;19.33;10.03;;;8.30;99.90;;;;;;5095710;28;20554;-83
2022/03/16 08:23:33;;;;;;;17.33;9.87;;;8.40;99.90;;;;;;5094689;28;20194;-81
2022/03/16 08:25:59;;;;;;;15.27;9.10;;;8.60;99.90;;;;;;5076618;28;20711;-80
2022/03/16 08:28:25;;;;;;;17.53;9.67;;;8.70;91.10;;;;;;5094806;28;20423;-84
2022/03/16 08:30:52;;;;;;;20.90;10.53;;;8.80;4.50;;;;;;5094604;28;20544;-84
2022/03/16 08:33:18;;;;;;;16.27;10.30;;;8.90;92.70;;;;;;5105959;28;20457;-82
2022/03/16 08:35:47;;;;;;;16.37;9.03;;;9.00;47.50;;;;;;5096823;28;20456;-83
2022/03/16 08:38:12;;;;;;;20.13;9.60;;;9.00;1.00;;;;;;5114889;28;20185;-84
2022/03/16 08:40:38;;;;;;;16.53;9.63;;;9.00;1.00;;;;;;5108508;27;20466;-82
2022/03/16 08:43:03;;;;;;;14.60;10.47;;;9.30;1.00;;;;;;5113295;28;20248;-82
2022/03/16 08:45:29;;;;;;;16.93;9.87;;;9.50;1.00;;;;;;5113792;28;20187;-81
2022/03/16 08:47:55;;;;;;;15.70;10.40;;;9.70;1.00;;;;;;5104353;28;20197;-81
2022/03/16 08:50:20;;;;;;;18.00;9.30;;;9.70;99.90;;;;;;5088569;28;20194;-83
2022/03/16 08:52:47;;;;;;;13.00;8.00;;;9.50;1.00;;;;;;5114321;28;20514;-82
2022/03/16 08:55:15;;;;;;;17.30;10.83;;;9.50;1.00;;;;;;5114240;28;20263;-83
2022/03/16 08:57:43;;;;;;;20.33;11.00;;;9.70;1.00;;;;;;5114302;28;20468;-82
2022/03/16 09:00:14;;;;;;;17.47;10.30;;;9.60;1.00;;;;;;5113874;28;20434;-82
2022/03/16 09:02:40;;;;;;;15.20;8.87;;;9.50;1.00;;;;;;5113905;28;20840;-83
2022/03/16 09:05:06;;;;;;;14.50;9.07;;;9.70;1.00;;;;;;5113835;28;20418;-82
2022/03/16 09:07:32;;;;;;;14.67;9.07;;;9.30;1.00;;;;;;5096033;28;20777;-82
2022/03/16 09:09:57;;;;;;;18.70;9.40;;;9.90;1.00;;;;;;5114134;28;20424;-83
2022/03/16 09:12:24;;;;;;;15.83;9.33;;;10.20;99.90;;;;;;5113140;28;20524;-87
2022/03/16 09:14:49;;;;;;;13.00;8.57;;;10.50;99.90;;;;;;5113682;28;20237;-82
2022/03/16 09:17:17;;;;;;;16.70;8.90;;;10.50;99.90;;;;;;5113130;28;20422;-82
2022/03/16 09:19:48;;;;;;;15.67;9.30;;;10.40;1.00;;;;;;5106743;28;20238;-82
2022/03/16 09:22:14;;;;;;;16.67;9.10;;;10.30;1.00;;;;;;5101681;28;20439;-83
2022/03/16 09:24:40;;;;;;;15.93;10.30;;;10.60;1.00;;;;;;5085449;28;20428;-82
2022/03/16 09:27:06;;;;;;;11.83;9.30;;;10.90;99.90;;;;;;5102687;28;20178;-83
2022/03/16 09:29:31;;;;;;;12.93;8.00;;;11.40;99.90;;;;;;5101373;28;20175;-83
2022/03/16 09:31:57;;;;;;;13.40;8.80;;;12.40;23.60;;;;;;5093181;28;20437;-83
2022/03/16 09:34:23;;;;;;;13.63;8.60;;;13.50;1.00;;;;;;5084282;28;20222;-83
2022/03/16 09:36:49;;;;;;;12.80;8.97;;;14.70;99.90;;;;;;5109903;28;20238;-83
2022/03/16 09:39:15;;;;;;;10.50;7.60;;;14.50;99.90;;;;;;5112800;28;20419;-81
2022/03/16 09:41:40;;;;;;;15.33;8.37;;;13.90;99.90;;;;;;5112129;28;20971;-82
2022/03/16 09:44:06;;;;;;;14.67;9.20;;;15.10;99.90;;;;;;5111657;28;20653;-82
2022/03/16 09:46:34;;;;;;;13.70;8.80;;;15.10;99.90;;;;;;5112852;28;20588;-81
2022/03/16 09:49:00;;;;;;;15.13;9.93;;;15.10;99.90;;;;;;5092868;28;20548;-83
2022/03/16 09:51:26;;;;;;;15.40;10.30;;;15.00;99.90;;;;;;5112584;28;20908;-82
2022/03/16 09:53:52;;;;;;;13.03;8.17;;;14.70;99.90;;;;;;5095036;28;20489;-83
2022/03/16 09:56:21;;;;;;;14.67;7.83;;;15.00;99.90;;;;;;5113239;28;20431;-83
2022/03/16 09:58:47;;;;;;;9.00;6.97;;;15.40;99.90;;;;;;5112620;28;20424;-83
2022/03/16 10:01:13;;;;;;;12.77;8.10;;;15.20;99.90;;;;;;5113183;28;20419;-83
2022/03/16 10:03:38;;;;;;;11.53;7.57;;;15.40;99.90;;;;;;5113010;28;20416;-83
2022/03/16 10:06:08;;;;;;;13.27;7.83;;;16.70;99.90;;;;;;5113198;28;20182;-83
2022/03/16 10:08:36;;;;;;;10.07;8.03;;;17.00;99.90;;;;;;5110168;28;20185;-83
2022/03/16 10:14:05;;;;;;;10.07;7.33;;;15.90;99.90;;;;;;5104170;28;20575;-83
2022/03/16 10:17:43;;;;;;;11.80;6.90;;;14.90;99.90;;;;;;5092487;28;20495;-83
2022/03/16 10:19:26;;;;;;;9.97;7.50;;;14.40;99.90;;;;;;5099973;28;20510;-83
2022/03/16 10:21:58;;;;;;;9.93;7.17;;;14.60;99.90;;;;;;5113138;28;20436;-83
2022/03/16 10:24:29;;;;;;;10.17;8.10;;;14.20;99.90;;;;;;5113322;28;20500;-82
2022/03/16 10:26:58;;;;;;;9.20;5.97;;;14.30;99.90;;;;;;5113198;28;20419;-83
2022/03/16 10:29:26;;;;;;;8.30;5.53;;;14.50;99.90;;;;;;5112874;28;20450;-83
2022/03/16 10:32:05;;;;;;;11.13;7.20;;;13.70;99.90;;;;;;5094122;28;20469;-82
2022/03/16 10:34:32;;;;;;;9.03;5.93;;;14.30;99.90;;;;;;5092773;28;20523;-83
2022/03/16 10:37:09;;;;;;;8.53;6.30;;;14.50;99.90;;;;;;5092779;28;20764;-83
2022/03/16 10:39:35;;;;;;;8.63;6.50;;;14.60;99.90;;;;;;5092690;28;20425;-83
2022/03/16 10:48:20;;;;;;;8.80;6.13;;;14.00;99.90;;;;;;5092789;28;20898;-83
2022/03/16 10:50:48;;;;;;;6.40;4.87;;;13.70;99.90;;;;;;5092532;28;20775;-83
2022/03/16 10:53:15;;;;;;;5.87;4.97;;;13.00;99.90;;;;;;5093866;28;20480;-83
2022/03/16 10:55:42;;;;;;;8.70;4.33;;;13.50;99.90;;;;;;5093309;28;20517;-81
2022/03/16 10:58:08;;;;;;;7.80;4.40;;;13.20;99.90;;;;;;5092293;28;20409;-82
2022/03/16 11:00:35;;;;;;;8.27;4.77;;;13.90;99.90;;;;;;5092508;28;20417;-81
2022/03/16 11:03:09;;;;;;;10.60;4.77;;;13.80;99.90;;;;;;5094531;28;20426;-82
2022/03/16 11:05:36;;;;;;;7.67;4.97;;;13.80;99.90;;;;;;5096477;28;20762;-83
2022/03/16 11:08:06;;;;;;;9.63;5.20;;;13.80;99.90;;;;;;5096359;28;20754;-82
2022/03/16 11:10:40;;;;;;;10.53;5.70;;;13.40;99.90;;;;;;5101349;28;20420;-81
2022/03/16 11:15:52;;;;;;;8.67;5.17;;;13.20;99.90;;;;;;5105286;28;20489;-81
2022/03/16 11:18:19;;;;;;;9.33;5.00;;;13.30;99.90;;;;;;5098965;28;20409;-82
2022/03/16 11:20:50;;;;;;;12.50;5.53;;;12.80;99.90;;;;;;5103164;28;20411;-82
2022/03/16 11:26:50;;;;;;;11.90;6.10;;;13.00;99.90;;;;;;5105127;28;20994;-83
2022/03/16 11:29:53;;;;;;;9.27;5.53;;;13.70;99.90;;;;;;5038103;28;20427;-83
2022/03/16 11:32:20;;;;;;;12.47;6.20;;;13.40;99.90;;;;;;5099676;28;20415;-84
2022/03/16 11:34:59;;;;;;;11.63;6.67;;;13.40;99.90;;;;;;5095773;28;20546;-84
2022/03/16 11:37:46;;;;;;;11.30;6.27;;;13.10;99.90;;;;;;5095890;28;20468;-83
2022/03/16 11:40:22;;;;;;;8.57;5.80;;;13.20;99.90;;;;;;5095533;28;20504;-83
2022/03/16 11:43:08;;;;;;;9.90;5.00;;;13.00;99.90;;;;;;5095632;28;20517;-83
2022/03/16 11:45:46;;;;;;;14.53;6.23;;;13.10;99.90;;;;;;5095701;28;20421;-84
2022/03/16 11:48:33;;;;;;;11.13;6.67;;;13.00;99.90;;;;;;5095680;28;20489;-84
2022/03/16 11:51:14;;;;;;;9.37;5.97;;;13.60;99.90;;;;;;5095508;28;20816;-84
2022/03/16 11:53:46;;;;;;;14.00;7.03;;;13.40;99.90;;;;;;5077258;28;20478;-84
2022/03/16 11:56:26;;;;;;;11.00;6.30;;;13.50;99.90;;;;;;5095361;28;20748;-84
2022/03/16 11:59:00;;;;;;;11.03;7.20;;;13.30;99.90;;;;;;5095208;28;20416;-83
2022/03/16 12:01:32;;;;;;;12.43;6.90;;;12.80;99.90;;;;;;5095420;28;20490;-82
2022/03/16 12:04:11;;;;;;;17.47;6.83;;;12.80;99.90;;;;;;5095313;28;20418;-82
2022/03/16 12:07:12;;;;;;;17.33;8.00;;;12.70;99.90;;;;;;5095259;28;20415;-83
2022/03/16 12:09:50;;;;;;;10.90;7.27;;;12.60;99.90;;;;;;5095102;28;20917;-83
2022/03/16 12:15:17;;;;;;;11.13;6.03;;;12.90;1.00;;;;;;5110876;28;20507;-83
2022/03/16 12:18:07;;;;;;;10.07;6.20;;;13.10;1.00;;;;;;5115468;28;20830;-82
2022/03/16 12:20:44;;;;;;;9.57;6.00;;;13.00;1.00;;;;;;5106059;28;20446;-83
2022/03/16 12:23:18;;;;;;;11.77;6.87;;;12.80;1.00;;;;;;5085809;28;20474;-83
2022/03/16 12:25:46;;;;;;;13.90;8.20;;;12.90;1.00;;;;;;5105598;28;20445;-83
2022/03/16 12:31:18;;;;;;;10.33;5.83;;;14.30;99.90;;;;;;5094852;28;20936;-83
2022/03/16 12:33:47;;;;;;;14.47;8.30;;;15.30;99.90;;;;;;5093986;28;20465;-83
2022/03/16 12:36:16;;;;;;;8.27;6.27;;;15.90;99.90;;;;;;5094585;28;20418;-83
2022/03/16 12:38:46;;;;;;;12.83;6.47;;;16.60;99.90;;;;;;5094651;28;20423;-83
2022/03/16 12:43:57;;;;;;;10.30;7.73;;;16.30;99.90;;;;;;5094581;28;20424;-83
2022/03/16 12:46:49;;;;;;;10.93;7.60;;;15.60;99.90;;;;;;5094370;28;20407;-84
2022/03/16 12:49:19;;;;;;;11.60;8.40;;;15.20;99.90;;;;;;5083270;28;20422;-82
2022/03/16 12:51:51;;;;;;;12.43;7.80;;;15.30;99.90;;;;;;5099024;28;20425;-85
2022/03/16 12:54:26;;;;;;;9.60;7.00;;;16.00;99.90;;;;;;5094955;28;20531;-84
2022/03/16 12:56:53;;;;;;;8.97;7.10;;;15.90;99.90;;;;;;5108215;28;20413;-83
2022/03/16 12:59:30;;;;;;;9.77;7.03;;;15.60;99.90;;;;;;5113730;28;20422;-83
2022/03/16 13:01:57;;;;;;;11.93;8.20;;;15.20;99.90;;;;;;5114046;28;21512;-83
2022/03/16 13:04:24;;;;;;;11.43;7.60;;;15.10;99.90;;;;;;5096500;28;20417;-83
2022/03/16 13:06:56;;;;;;;11.47;8.90;;;15.30;99.90;;;;;;5114352;28;20913;-83
2022/03/16 13:09:29;;;;;;;13.77;8.93;;;15.10;99.90;;;;;;5114390;28;20445;-82